createdAt,value
2018-12-17T06:13:44.479Z,44.20
2018-12-17T06:16:13.261Z,46.90
2018-12-17T06:18:42.328Z,46.60
2018-12-17T06:21:11.034Z,46.50
2018-12-17T06:23:39.808Z,46.40
2018-12-17T06:26:09.020Z,46.30
2018-12-17T06:28:38.032Z,46.10
2018-12-17T06:31:06.756Z,46.00
2018-12-17T06:33:36.180Z,45.90
2018-12-17T06:36:04.859Z,45.90
2018-12-17T06:38:33.727Z,45.70
2018-12-17T06:41:03.134Z,45.60
2018-12-17T06:43:32.252Z,45.50
2018-12-17T06:46:01.073Z,45.40
2018-12-17T06:48:29.896Z,45.90
2018-12-17T06:50:59.030Z,45.20
2018-12-17T06:53:28.300Z,45.00
2018-12-17T06:55:57.426Z,45.00
2018-12-17T06:58:26.556Z,44.80
2018-12-17T07:00:55.309Z,44.70
2018-12-17T07:03:23.999Z,44.70
2018-12-17T07:05:53.021Z,44.80
2018-12-17T07:08:21.801Z,45.50
2018-12-17T07:10:50.889Z,45.10
2018-12-17T07:15:48.604Z,45.40
2018-12-17T07:18:17.311Z,45.30
2018-12-17T07:20:46.075Z,45.00
2018-12-17T07:23:14.921Z,45.00
2018-12-17T07:25:44.091Z,44.90
2018-12-17T07:28:12.837Z,45.00
2018-12-17T07:30:41.581Z,44.90
2018-12-17T07:33:10.291Z,44.80
2018-12-17T07:35:39.120Z,44.80
2018-12-17T07:38:08.395Z,44.80
2018-12-17T07:40:37.115Z,44.70
2018-12-17T07:43:06.219Z,44.60
2018-12-17T07:45:35.116Z,44.50
2018-12-17T07:48:03.840Z,44.40
2018-12-17T07:50:33.153Z,44.60
2018-12-17T07:53:01.912Z,44.60
2018-12-17T07:55:31.036Z,44.50
2018-12-17T07:57:59.769Z,44.20
2018-12-17T08:00:28.663Z,44.20
2018-12-17T08:02:57.381Z,44.00
2018-12-17T08:05:26.558Z,44.00
2018-12-17T08:07:55.399Z,43.90
2018-12-17T08:10:24.240Z,43.90
2018-12-17T08:12:53.495Z,43.80
2018-12-17T08:15:22.330Z,43.60
2018-12-17T08:18:01.048Z,43.60
2018-12-17T08:20:29.908Z,43.60
2018-12-17T08:22:58.722Z,43.40
2018-12-17T08:25:28.136Z,43.90
2018-12-17T08:27:57.259Z,43.30
2018-12-17T08:30:26.569Z,43.20
2018-12-17T08:32:55.602Z,43.10
2018-12-17T08:35:24.731Z,43.00
2018-12-17T08:37:54.175Z,43.20
2018-12-17T08:40:23.365Z,42.90
2018-12-17T08:42:52.554Z,42.90
2018-12-17T08:45:21.807Z,43.00
2018-12-17T08:47:51.316Z,42.90
2018-12-17T08:50:21.459Z,42.90
2018-12-17T08:52:50.852Z,42.90
2018-12-17T08:55:19.945Z,43.00
2018-12-17T08:57:49.469Z,42.90
2018-12-17T09:00:18.705Z,43.00
2018-12-17T09:02:47.837Z,43.00
2018-12-17T09:05:17.281Z,43.50
2018-12-17T09:07:46.415Z,43.00
2018-12-17T09:10:15.514Z,43.10
2018-12-17T09:12:44.347Z,43.00
2018-12-17T09:15:13.385Z,43.80
2018-12-17T09:17:42.080Z,43.00
2018-12-17T09:20:11.639Z,43.00
2018-12-17T09:22:40.725Z,42.90
2018-12-17T09:25:09.800Z,43.00
2018-12-17T09:27:39.213Z,43.00
2018-12-17T09:30:08.815Z,42.90
2018-12-17T09:32:38.396Z,43.00
2018-12-17T09:35:08.003Z,43.10
2018-12-17T09:37:37.606Z,43.10
2018-12-17T09:40:10.400Z,43.30
2018-12-17T09:42:39.849Z,43.40
2018-12-17T09:45:09.394Z,43.40
2018-12-17T09:47:38.420Z,43.40
2018-12-17T09:50:07.628Z,43.50
2018-12-17T09:52:37.300Z,43.40
2018-12-17T09:55:06.404Z,43.30
2018-12-17T09:57:35.800Z,43.30
2018-12-17T10:00:05.630Z,43.40
2018-12-17T10:02:36.000Z,43.30
2018-12-17T10:05:05.485Z,43.30
2018-12-17T10:07:35.652Z,43.30
2018-12-17T10:10:05.742Z,43.30
2018-12-17T10:12:35.012Z,43.40
2018-12-17T10:15:04.006Z,43.30
2018-12-17T10:17:33.511Z,43.50
2018-12-17T10:20:02.641Z,43.50
2018-12-17T10:22:32.452Z,43.50
2018-12-17T10:25:01.886Z,43.40
2018-12-17T10:27:30.999Z,43.50
2018-12-17T10:30:00.441Z,43.60
2018-12-17T10:32:29.603Z,43.40
2018-12-17T10:34:58.754Z,44.10
2018-12-17T10:37:28.269Z,43.60
2018-12-17T10:39:57.863Z,43.50
2018-12-17T10:42:28.204Z,43.40
2018-12-17T10:44:57.592Z,43.30
2018-12-17T10:49:55.508Z,43.30
2018-12-17T10:52:24.739Z,43.10
2018-12-17T10:54:54.348Z,43.10
2018-12-17T10:57:23.059Z,43.10
2018-12-17T10:59:52.307Z,43.10
2018-12-17T11:02:26.066Z,43.00
2018-12-17T11:04:57.625Z,43.00
2018-12-17T11:07:26.840Z,43.00
2018-12-17T11:09:55.849Z,43.00
2018-12-17T11:12:24.843Z,43.00
2018-12-17T11:14:54.380Z,43.00
2018-12-17T11:17:23.533Z,42.90
2018-12-17T11:19:53.298Z,43.00
2018-12-17T11:24:50.956Z,43.00
2018-12-17T11:29:48.648Z,42.70
2018-12-17T11:32:18.830Z,42.80
2018-12-17T11:34:48.356Z,42.80
2018-12-17T11:37:17.835Z,42.70
2018-12-17T11:39:47.374Z,42.90
2018-12-17T11:42:16.506Z,42.90
2018-12-17T11:44:45.727Z,42.90
2018-12-17T11:47:14.925Z,43.00
2018-12-17T11:49:44.514Z,42.80
2018-12-17T11:52:13.627Z,42.80
2018-12-17T11:54:42.850Z,42.90
2018-12-17T11:57:31.944Z,42.70
2018-12-17T12:00:00.940Z,42.80
2018-12-17T12:02:30.962Z,42.60
2018-12-17T12:04:59.948Z,42.70
2018-12-17T12:07:29.035Z,42.80
2018-12-17T12:09:58.594Z,42.90
2018-12-17T12:12:27.985Z,42.90
2018-12-17T12:14:56.700Z,43.00
2018-12-17T12:17:26.108Z,43.00
2018-12-17T12:19:55.605Z,42.60
2018-12-17T12:22:24.637Z,43.00
2018-12-17T12:24:53.422Z,43.80
2018-12-17T12:27:23.902Z,43.20
2018-12-17T12:29:53.206Z,42.80
2018-12-17T12:32:23.244Z,43.30
2018-12-17T12:34:52.021Z,43.10
2018-12-17T12:39:50.935Z,43.00
2018-12-17T12:42:20.820Z,43.10
2018-12-17T12:44:52.473Z,43.10
2018-12-17T12:47:21.892Z,43.00
2018-12-17T12:49:51.015Z,42.90
2018-12-17T12:52:20.167Z,43.00
2018-12-17T12:54:50.438Z,43.10
2018-12-17T12:57:20.533Z,43.40
2018-12-17T12:59:49.915Z,43.10
2018-12-17T13:02:18.922Z,42.90
2018-12-17T13:04:48.444Z,42.90
2018-12-17T13:07:17.543Z,42.90
2018-12-17T13:09:47.052Z,42.90
2018-12-17T13:12:16.080Z,42.80
2018-12-17T13:14:45.299Z,42.80
2018-12-17T13:17:19.780Z,42.90
2018-12-17T13:19:48.883Z,42.80
2018-12-17T13:22:17.875Z,42.80
2018-12-17T13:24:47.476Z,42.90
2018-12-17T13:27:17.026Z,42.50
2018-12-17T13:29:47.753Z,42.70
2018-12-17T13:32:18.504Z,42.90
2018-12-17T13:34:47.186Z,42.80
2018-12-17T13:37:16.959Z,42.90
2018-12-17T13:39:46.015Z,42.80
2018-12-17T13:42:15.229Z,42.80
2018-12-17T13:44:44.909Z,42.80
2018-12-17T13:47:14.264Z,42.70
2018-12-17T13:49:43.455Z,42.80
2018-12-17T13:52:18.092Z,42.80
2018-12-17T13:54:47.664Z,42.80
2018-12-17T13:57:17.051Z,42.90
2018-12-17T13:59:46.467Z,42.90
2018-12-17T14:02:15.971Z,42.90
2018-12-17T14:04:45.428Z,42.90
2018-12-17T14:07:16.503Z,43.00
2018-12-17T14:09:51.792Z,43.00
2018-12-17T14:12:21.300Z,43.00
2018-12-17T14:14:51.700Z,43.00
2018-12-17T14:17:26.163Z,43.00
2018-12-17T14:20:01.039Z,42.90
2018-12-17T14:22:30.715Z,42.90
2018-12-17T14:24:59.927Z,43.00
2018-12-17T14:27:30.291Z,43.00
2018-12-17T14:29:59.432Z,43.00
2018-12-17T14:32:29.364Z,43.10
2018-12-17T14:34:58.800Z,43.10
2018-12-17T14:37:28.675Z,43.10
2018-12-17T14:39:58.228Z,43.10
2018-12-17T14:42:27.704Z,43.10
2018-12-17T14:44:57.967Z,43.20
2018-12-17T14:47:27.352Z,43.20
2018-12-17T14:49:56.496Z,43.20
2018-12-17T14:52:25.655Z,43.30
2018-12-17T14:54:54.856Z,43.00
2018-12-17T14:57:24.303Z,43.00
2018-12-17T14:59:54.016Z,43.10
2018-12-17T15:02:23.607Z,43.10
2018-12-17T15:04:52.770Z,43.10
2018-12-17T15:07:21.808Z,43.20
2018-12-17T15:09:51.607Z,43.10
2018-12-17T15:12:20.629Z,43.00
2018-12-17T15:14:50.023Z,43.00
2018-12-17T15:17:19.679Z,43.10
2018-12-17T15:19:49.193Z,43.10
2018-12-17T15:22:18.356Z,43.00
2018-12-17T15:24:47.951Z,43.10
2018-12-17T15:27:16.932Z,43.10
2018-12-17T15:29:46.223Z,43.00
2018-12-17T15:32:16.434Z,43.00
2018-12-17T15:34:45.716Z,42.90
2018-12-17T15:37:14.991Z,42.90
2018-12-17T15:39:44.467Z,42.90
2018-12-17T15:44:45.003Z,43.00
2018-12-17T15:47:13.999Z,43.00
2018-12-17T15:49:43.496Z,43.00
2018-12-17T15:52:12.899Z,43.00
2018-12-17T15:54:44.924Z,42.90
2018-12-17T15:57:14.023Z,43.20
2018-12-17T15:59:43.408Z,43.00
2018-12-17T16:02:12.769Z,43.10
2018-12-17T16:04:42.210Z,43.20
2018-12-17T16:07:11.661Z,43.90
2018-12-17T16:09:41.163Z,43.20
2018-12-17T16:12:09.859Z,43.30
2018-12-17T16:14:39.355Z,43.30
2018-12-17T16:19:37.330Z,43.20
2018-12-17T16:22:06.794Z,43.50
2018-12-17T16:24:36.503Z,43.40
2018-12-17T16:27:05.999Z,43.30
2018-12-17T16:29:34.667Z,43.30
2018-12-17T16:32:04.038Z,43.30
2018-12-17T16:34:33.200Z,43.30
2018-12-17T16:37:02.656Z,43.30
2018-12-17T16:39:31.835Z,43.30
2018-12-17T16:42:00.899Z,43.30
2018-12-17T16:44:30.405Z,43.30
2018-12-17T16:46:59.576Z,43.20
2018-12-17T16:49:29.081Z,43.20
2018-12-17T16:51:58.155Z,43.10
2018-12-17T16:54:27.272Z,43.10
2018-12-17T16:56:56.691Z,43.10
2018-12-17T16:59:26.059Z,43.00
2018-12-17T17:01:55.589Z,43.00
2018-12-17T17:04:24.664Z,43.00
2018-12-17T17:06:54.095Z,43.00
2018-12-17T17:09:23.941Z,42.90
2018-12-17T17:11:53.314Z,42.90
2018-12-17T17:14:23.111Z,42.90
2018-12-17T17:16:52.612Z,42.90
2018-12-17T17:19:22.071Z,42.90
2018-12-17T17:21:51.687Z,43.50
2018-12-17T17:24:21.248Z,42.90
2018-12-17T17:26:50.500Z,43.00
2018-12-17T17:29:19.466Z,42.80
2018-12-17T17:31:48.337Z,42.90
2018-12-17T17:34:17.929Z,42.80
2018-12-17T17:36:47.088Z,43.00
2018-12-17T17:39:16.584Z,43.00
2018-12-17T17:41:46.455Z,43.10
2018-12-17T17:44:15.935Z,43.00
2018-12-17T17:46:44.749Z,43.00
2018-12-17T17:49:13.759Z,43.10
2018-12-17T17:51:42.876Z,43.10
2018-12-17T17:54:11.869Z,43.20
2018-12-17T17:56:40.841Z,43.20
2018-12-17T17:59:09.920Z,43.20
2018-12-17T18:01:39.015Z,43.10
2018-12-17T18:04:08.436Z,43.20
2018-12-17T18:06:37.636Z,43.10
2018-12-17T18:09:09.108Z,43.20
2018-12-17T18:11:38.312Z,43.10
2018-12-17T18:14:07.427Z,43.10
2018-12-17T18:16:36.543Z,43.30
2018-12-17T18:19:05.646Z,43.20
2018-12-17T18:21:34.780Z,43.30
2018-12-17T18:24:03.863Z,43.40
2018-12-17T18:26:32.955Z,43.30
2018-12-17T18:29:02.794Z,43.40
2018-12-17T18:31:31.903Z,43.20
2018-12-17T18:34:01.454Z,43.20
2018-12-17T18:36:30.824Z,43.30
2018-12-17T18:39:00.352Z,43.30
2018-12-17T18:41:29.065Z,43.30
2018-12-17T18:43:58.463Z,43.20
2018-12-17T18:46:28.011Z,43.10
2018-12-17T18:48:57.608Z,43.10
2018-12-17T18:51:27.184Z,43.20
2018-12-17T18:53:57.372Z,44.00
2018-12-17T18:56:26.068Z,43.10
2018-12-17T18:58:55.220Z,43.10
2018-12-17T19:01:24.279Z,43.00
2018-12-17T19:03:53.496Z,43.10
2018-12-17T19:06:22.171Z,43.30
2018-12-17T19:08:51.756Z,43.40
2018-12-17T19:11:21.915Z,43.40
2018-12-17T19:13:51.145Z,43.40
2018-12-17T19:16:20.576Z,43.30
2018-12-17T19:18:49.887Z,43.40
2018-12-17T19:21:19.571Z,43.40
2018-12-17T19:23:48.452Z,43.50
2018-12-17T19:26:18.714Z,43.60
2018-12-17T19:28:47.720Z,43.70
2018-12-17T19:31:17.209Z,43.80
2018-12-17T19:33:46.204Z,43.80
2018-12-17T19:36:16.648Z,43.70
2018-12-17T19:38:45.480Z,43.50
2018-12-17T19:41:14.613Z,43.50
2018-12-17T19:43:43.616Z,43.40
2018-12-17T19:46:12.713Z,43.30
2018-12-17T19:48:42.212Z,43.60
2018-12-17T19:51:11.875Z,43.50
2018-12-17T19:53:41.528Z,43.50
2018-12-17T19:56:10.625Z,43.40
2018-12-17T20:01:09.344Z,43.70
2018-12-17T20:03:41.324Z,43.40
2018-12-17T20:06:10.963Z,43.30
2018-12-17T20:08:40.253Z,43.20
2018-12-17T20:11:09.377Z,43.20
2018-12-17T20:13:38.475Z,43.10
2018-12-17T20:16:09.187Z,43.00
2018-12-17T20:18:38.784Z,43.20
2018-12-17T20:21:07.599Z,42.90
2018-12-17T20:23:38.035Z,42.90
2018-12-17T20:26:07.450Z,42.90
2018-12-17T20:28:37.849Z,43.00
2018-12-17T20:31:06.551Z,43.00
2018-12-17T20:33:36.264Z,43.00
2018-12-17T20:36:05.504Z,43.00
2018-12-17T20:38:34.891Z,42.90
2018-12-17T20:41:04.484Z,43.10
2018-12-17T20:43:33.907Z,43.00
2018-12-17T20:46:02.983Z,43.00
2018-12-17T20:48:32.524Z,43.00
2018-12-17T20:51:02.021Z,43.00
2018-12-17T20:53:31.392Z,42.90
2018-12-17T20:56:00.823Z,43.20
2018-12-17T20:58:29.987Z,43.30
2018-12-17T21:01:00.518Z,43.30
2018-12-17T21:03:29.243Z,43.00
2018-12-17T21:05:58.632Z,42.90
2018-12-17T21:08:27.687Z,42.70
2018-12-17T21:10:57.366Z,43.30
2018-12-17T21:13:26.939Z,42.60
2018-12-17T21:15:56.201Z,42.60
2018-12-17T21:18:25.668Z,42.80
2018-12-17T21:20:54.782Z,42.70
2018-12-17T21:23:24.331Z,42.70
2018-12-17T21:25:53.556Z,42.50
2018-12-17T21:28:23.879Z,42.60
2018-12-17T21:30:54.625Z,42.60
2018-12-17T21:33:23.724Z,42.70
2018-12-17T21:35:53.226Z,42.50
2018-12-17T21:38:22.065Z,42.50
2018-12-17T21:40:51.108Z,42.50
2018-12-17T21:43:19.843Z,42.50
2018-12-17T21:45:49.981Z,43.60
2018-12-17T21:48:19.565Z,42.70
2018-12-17T21:50:49.024Z,42.50
2018-12-17T21:53:18.477Z,42.70
2018-12-17T21:55:47.670Z,42.90
